sensor_id;sensor_type;location;lat;lon;timestamp;P1;durP1;ratioP1;P2;durP2;ratioP2
22543;SDS011;11438;52.044;8.716;2022-09-02T00:00:45;0.88;;;0.40;;
22543;SDS011;11438;52.044;8.716;2022-09-02T00:03:13;0.52;;;0.40;;
22543;SDS011;11438;52.044;8.716;2022-09-02T00:05:39;1.52;;;0.40;;
22543;SDS011;11438;52.044;8.716;2022-09-02T00:08:06;0.60;;;0.40;;
22543;SDS011;11438;52.044;8.716;2022-09-02T00:10:33;0.57;;;0.30;;
22543;SDS011;11438;52.044;8.716;2022-09-02T00:13:02;0.98;;;0.30;;
22543;SDS011;11438;52.044;8.716;2022-09-02T00:15:28;0.63;;;0.45;;
22543;SDS011;11438;52.044;8.716;2022-09-02T00:17:53;0.40;;;0.28;;
22543;SDS011;11438;52.044;8.716;2022-09-02T00:20:19;0.30;;;0.30;;
22543;SDS011;11438;52.044;8.716;2022-09-02T00:22:45;0.43;;;0.30;;
22543;SDS011;11438;52.044;8.716;2022-09-02T00:25:11;0.45;;;0.32;;
22543;SDS011;11438;52.044;8.716;2022-09-02T00:27:37;1.67;;;0.40;;
22543;SDS011;11438;52.044;8.716;2022-09-02T00:30:03;1.48;;;0.40;;
22543;SDS011;11438;52.044;8.716;2022-09-02T00:32:29;1.15;;;0.40;;
22543;SDS011;11438;52.044;8.716;2022-09-02T00:34:55;0.85;;;0.50;;
22543;SDS011;11438;52.044;8.716;2022-09-02T00:37:22;0.40;;;0.40;;
22543;SDS011;11438;52.044;8.716;2022-09-02T00:39:48;0.88;;;0.47;;
22543;SDS011;11438;52.044;8.716;2022-09-02T00:42:15;1.08;;;0.40;;
22543;SDS011;11438;52.044;8.716;2022-09-02T00:44:41;1.05;;;0.65;;
22543;SDS011;11438;52.044;8.716;2022-09-02T00:47:06;0.65;;;0.40;;
22543;SDS011;11438;52.044;8.716;2022-09-02T00:49:32;1.65;;;0.30;;
22543;SDS011;11438;52.044;8.716;2022-09-02T00:52:04;0.80;;;0.30;;
22543;SDS011;11438;52.044;8.716;2022-09-02T00:54:35;1.08;;;0.30;;
22543;SDS011;11438;52.044;8.716;2022-09-02T00:57:09;0.70;;;0.40;;
22543;SDS011;11438;52.044;8.716;2022-09-02T01:02:28;1.23;;;0.50;;
22543;SDS011;11438;52.044;8.716;2022-09-02T01:04:55;3.22;;;0.60;;
22543;SDS011;11438;52.044;8.716;2022-09-02T01:07:23;2.25;;;0.40;;
22543;SDS011;11438;52.044;8.716;2022-09-02T01:09:54;0.47;;;0.40;;
22543;SDS011;11438;52.044;8.716;2022-09-02T01:12:21;1.15;;;0.47;;
22543;SDS011;11438;52.044;8.716;2022-09-02T01:14:47;0.85;;;0.40;;
22543;SDS011;11438;52.044;8.716;2022-09-02T01:17:12;0.77;;;0.30;;
22543;SDS011;11438;52.044;8.716;2022-09-02T01:19:43;1.42;;;0.40;;
22543;SDS011;11438;52.044;8.716;2022-09-02T01:22:14;1.35;;;0.50;;
22543;SDS011;11438;52.044;8.716;2022-09-02T01:24:44;1.33;;;0.40;;
22543;SDS011;11438;52.044;8.716;2022-09-02T01:27:12;0.88;;;0.47;;
22543;SDS011;11438;52.044;8.716;2022-09-02T01:29:43;0.52;;;0.50;;
22543;SDS011;11438;52.044;8.716;2022-09-02T01:32:09;1.10;;;0.40;;
22543;SDS011;11438;52.044;8.716;2022-09-02T01:34:35;1.23;;;0.50;;
22543;SDS011;11438;52.044;8.716;2022-09-02T01:37:01;1.02;;;0.50;;
22543;SDS011;11438;52.044;8.716;2022-09-02T01:39:26;2.00;;;0.40;;
22543;SDS011;11438;52.044;8.716;2022-09-02T01:41:52;1.25;;;0.50;;
22543;SDS011;11438;52.044;8.716;2022-09-02T01:44:18;0.60;;;0.40;;
22543;SDS011;11438;52.044;8.716;2022-09-02T01:46:43;0.50;;;0.40;;
22543;SDS011;11438;52.044;8.716;2022-09-02T01:49:09;1.58;;;0.45;;
22543;SDS011;11438;52.044;8.716;2022-09-02T01:51:35;0.95;;;0.45;;
22543;SDS011;11438;52.044;8.716;2022-09-02T01:54:01;1.13;;;0.57;;
22543;SDS011;11438;52.044;8.716;2022-09-02T01:56:27;0.60;;;0.40;;
22543;SDS011;11438;52.044;8.716;2022-09-02T01:58:52;0.57;;;0.40;;
22543;SDS011;11438;52.044;8.716;2022-09-02T02:01:19;0.40;;;0.40;;
22543;SDS011;11438;52.044;8.716;2022-09-02T02:03:44;0.70;;;0.38;;
22543;SDS011;11438;52.044;8.716;2022-09-02T02:06:11;0.63;;;0.40;;
22543;SDS011;11438;52.044;8.716;2022-09-02T02:08:41;0.50;;;0.38;;
22543;SDS011;11438;52.044;8.716;2022-09-02T02:11:07;0.60;;;0.40;;
22543;SDS011;11438;52.044;8.716;2022-09-02T02:13:33;0.57;;;0.52;;
22543;SDS011;11438;52.044;8.716;2022-09-02T02:15:59;1.38;;;0.50;;
22543;SDS011;11438;52.044;8.716;2022-09-02T02:18:25;0.93;;;0.50;;
22543;SDS011;11438;52.044;8.716;2022-09-02T02:20:51;1.42;;;0.73;;
22543;SDS011;11438;52.044;8.716;2022-09-02T02:23:16;1.85;;;0.40;;
22543;SDS011;11438;52.044;8.716;2022-09-02T02:25:42;3.33;;;0.50;;
22543;SDS011;11438;52.044;8.716;2022-09-02T02:28:07;1.42;;;0.40;;
22543;SDS011;11438;52.044;8.716;2022-09-02T02:30:33;0.68;;;0.40;;
22543;SDS011;11438;52.044;8.716;2022-09-02T02:32:59;2.90;;;0.47;;
22543;SDS011;11438;52.044;8.716;2022-09-02T02:35:26;0.77;;;0.40;;
22543;SDS011;11438;52.044;8.716;2022-09-02T02:37:52;0.90;;;0.40;;
22543;SDS011;11438;52.044;8.716;2022-09-02T02:40:18;0.68;;;0.50;;
22543;SDS011;11438;52.044;8.716;2022-09-02T02:42:46;1.00;;;0.65;;
22543;SDS011;11438;52.044;8.716;2022-09-02T02:45:13;2.83;;;0.70;;
22543;SDS011;11438;52.044;8.716;2022-09-02T02:47:39;2.08;;;0.80;;
22543;SDS011;11438;52.044;8.716;2022-09-02T02:50:07;3.55;;;1.10;;
22543;SDS011;11438;52.044;8.716;2022-09-02T02:52:35;3.30;;;1.80;;
22543;SDS011;11438;52.044;8.716;2022-09-02T02:55:01;3.95;;;1.75;;
22543;SDS011;11438;52.044;8.716;2022-09-02T02:57:27;4.15;;;1.30;;
22543;SDS011;11438;52.044;8.716;2022-09-02T02:59:53;3.13;;;1.58;;
22543;SDS011;11438;52.044;8.716;2022-09-02T03:02:18;4.78;;;1.40;;
22543;SDS011;11438;52.044;8.716;2022-09-02T03:04:44;3.58;;;1.70;;
22543;SDS011;11438;52.044;8.716;2022-09-02T03:07:10;2.45;;;0.93;;
22543;SDS011;11438;52.044;8.716;2022-09-02T03:09:35;2.17;;;1.10;;
22543;SDS011;11438;52.044;8.716;2022-09-02T03:12:01;1.08;;;0.70;;
22543;SDS011;11438;52.044;8.716;2022-09-02T03:14:26;1.05;;;0.52;;
22543;SDS011;11438;52.044;8.716;2022-09-02T03:16:52;0.80;;;0.45;;
22543;SDS011;11438;52.044;8.716;2022-09-02T03:19:17;0.50;;;0.50;;
22543;SDS011;11438;52.044;8.716;2022-09-02T03:21:43;1.23;;;0.63;;
22543;SDS011;11438;52.044;8.716;2022-09-02T03:24:09;1.00;;;0.50;;
22543;SDS011;11438;52.044;8.716;2022-09-02T03:26:36;1.08;;;0.52;;
22543;SDS011;11438;52.044;8.716;2022-09-02T03:29:04;1.10;;;0.40;;
22543;SDS011;11438;52.044;8.716;2022-09-02T03:31:29;1.05;;;0.47;;
22543;SDS011;11438;52.044;8.716;2022-09-02T03:33:55;1.88;;;0.43;;
22543;SDS011;11438;52.044;8.716;2022-09-02T03:36:28;0.60;;;0.52;;
22543;SDS011;11438;52.044;8.716;2022-09-02T03:38:59;1.70;;;0.77;;
22543;SDS011;11438;52.044;8.716;2022-09-02T03:41:25;0.60;;;0.50;;
22543;SDS011;11438;52.044;8.716;2022-09-02T03:43:51;1.05;;;0.70;;
22543;SDS011;11438;52.044;8.716;2022-09-02T03:46:16;1.30;;;0.82;;
22543;SDS011;11438;52.044;8.716;2022-09-02T03:48:42;2.97;;;1.42;;
22543;SDS011;11438;52.044;8.716;2022-09-02T03:51:08;1.98;;;1.20;;
22543;SDS011;11438;52.044;8.716;2022-09-02T03:53:34;1.23;;;0.77;;
22543;SDS011;11438;52.044;8.716;2022-09-02T03:56:03;1.30;;;0.80;;
22543;SDS011;11438;52.044;8.716;2022-09-02T03:58:30;0.60;;;0.60;;
22543;SDS011;11438;52.044;8.716;2022-09-02T04:00:56;1.65;;;0.80;;
22543;SDS011;11438;52.044;8.716;2022-09-02T04:03:21;4.95;;;0.85;;
22543;SDS011;11438;52.044;8.716;2022-09-02T04:05:47;4.05;;;0.80;;
22543;SDS011;11438;52.044;8.716;2022-09-02T04:08:15;1.52;;;0.70;;
22543;SDS011;11438;52.044;8.716;2022-09-02T04:10:41;2.20;;;0.90;;
22543;SDS011;11438;52.044;8.716;2022-09-02T04:13:07;1.95;;;0.80;;
22543;SDS011;11438;52.044;8.716;2022-09-02T04:15:32;1.90;;;1.00;;
22543;SDS011;11438;52.044;8.716;2022-09-02T04:17:58;1.30;;;0.80;;
22543;SDS011;11438;52.044;8.716;2022-09-02T04:20:24;0.88;;;0.63;;
22543;SDS011;11438;52.044;8.716;2022-09-02T04:22:49;0.93;;;0.70;;
22543;SDS011;11438;52.044;8.716;2022-09-02T04:25:15;0.60;;;0.50;;
22543;SDS011;11438;52.044;8.716;2022-09-02T04:27:41;0.85;;;0.70;;
22543;SDS011;11438;52.044;8.716;2022-09-02T04:30:07;1.98;;;0.70;;
22543;SDS011;11438;52.044;8.716;2022-09-02T04:32:34;0.60;;;0.50;;
22543;SDS011;11438;52.044;8.716;2022-09-02T04:35:00;1.65;;;0.73;;
22543;SDS011;11438;52.044;8.716;2022-09-02T04:37:26;1.80;;;0.63;;
22543;SDS011;11438;52.044;8.716;2022-09-02T04:39:51;1.45;;;0.68;;
22543;SDS011;11438;52.044;8.716;2022-09-02T04:42:17;1.55;;;0.80;;
22543;SDS011;11438;52.044;8.716;2022-09-02T04:44:43;1.30;;;0.73;;
22543;SDS011;11438;52.044;8.716;2022-09-02T04:47:10;1.85;;;0.60;;
22543;SDS011;11438;52.044;8.716;2022-09-02T04:49:36;1.92;;;0.60;;
22543;SDS011;11438;52.044;8.716;2022-09-02T04:52:01;0.93;;;0.63;;
22543;SDS011;11438;52.044;8.716;2022-09-02T04:54:27;2.20;;;0.90;;
22543;SDS011;11438;52.044;8.716;2022-09-02T04:56:53;3.90;;;0.85;;
22543;SDS011;11438;52.044;8.716;2022-09-02T04:59:18;3.90;;;0.90;;
22543;SDS011;11438;52.044;8.716;2022-09-02T05:01:45;2.50;;;0.75;;
22543;SDS011;11438;52.044;8.716;2022-09-02T05:04:11;0.80;;;0.60;;
22543;SDS011;11438;52.044;8.716;2022-09-02T05:06:37;1.55;;;0.60;;
22543;SDS011;11438;52.044;8.716;2022-09-02T05:09:03;1.20;;;0.68;;
22543;SDS011;11438;52.044;8.716;2022-09-02T05:11:30;1.30;;;0.60;;
22543;SDS011;11438;52.044;8.716;2022-09-02T05:13:58;1.15;;;0.80;;
22543;SDS011;11438;52.044;8.716;2022-09-02T05:16:28;1.42;;;0.60;;
22543;SDS011;11438;52.044;8.716;2022-09-02T05:18:55;1.13;;;0.63;;
22543;SDS011;11438;52.044;8.716;2022-09-02T05:21:22;3.00;;;0.82;;
22543;SDS011;11438;52.044;8.716;2022-09-02T05:23:48;1.08;;;0.68;;
22543;SDS011;11438;52.044;8.716;2022-09-02T05:26:14;2.13;;;0.88;;
22543;SDS011;11438;52.044;8.716;2022-09-02T05:28:40;2.50;;;0.90;;
22543;SDS011;11438;52.044;8.716;2022-09-02T05:31:16;1.67;;;0.70;;
22543;SDS011;11438;52.044;8.716;2022-09-02T05:33:43;4.60;;;0.90;;
22543;SDS011;11438;52.044;8.716;2022-09-02T05:36:11;1.02;;;0.80;;
22543;SDS011;11438;52.044;8.716;2022-09-02T05:38:41;2.15;;;0.80;;
22543;SDS011;11438;52.044;8.716;2022-09-02T05:41:10;0.90;;;0.63;;
22543;SDS011;11438;52.044;8.716;2022-09-02T05:43:39;1.50;;;0.60;;
22543;SDS011;11438;52.044;8.716;2022-09-02T05:46:05;0.68;;;0.60;;
22543;SDS011;11438;52.044;8.716;2022-09-02T05:48:34;1.08;;;0.63;;
22543;SDS011;11438;52.044;8.716;2022-09-02T05:51:19;2.38;;;0.60;;
22543;SDS011;11438;52.044;8.716;2022-09-02T05:53:45;0.75;;;0.65;;
22543;SDS011;11438;52.044;8.716;2022-09-02T05:56:11;1.55;;;0.80;;
22543;SDS011;11438;52.044;8.716;2022-09-02T05:58:37;0.90;;;0.55;;
22543;SDS011;11438;52.044;8.716;2022-09-02T06:01:07;1.00;;;0.63;;
22543;SDS011;11438;52.044;8.716;2022-09-02T06:03:33;1.17;;;0.50;;
22543;SDS011;11438;52.044;8.716;2022-09-02T06:05:59;1.95;;;0.82;;
22543;SDS011;11438;52.044;8.716;2022-09-02T06:08:24;2.15;;;0.70;;
22543;SDS011;11438;52.044;8.716;2022-09-02T06:10:50;0.93;;;0.65;;
22543;SDS011;11438;52.044;8.716;2022-09-02T06:13:16;1.80;;;0.73;;
22543;SDS011;11438;52.044;8.716;2022-09-02T06:15:46;0.80;;;0.63;;
22543;SDS011;11438;52.044;8.716;2022-09-02T06:18:15;4.80;;;0.60;;
22543;SDS011;11438;52.044;8.716;2022-09-02T06:20:42;4.10;;;0.70;;
22543;SDS011;11438;52.044;8.716;2022-09-02T06:23:11;3.67;;;1.10;;
22543;SDS011;11438;52.044;8.716;2022-09-02T06:25:38;0.95;;;0.68;;
22543;SDS011;11438;52.044;8.716;2022-09-02T06:28:05;2.08;;;0.82;;
22543;SDS011;11438;52.044;8.716;2022-09-02T06:30:31;2.67;;;0.90;;
22543;SDS011;11438;52.044;8.716;2022-09-02T06:32:58;2.00;;;0.85;;
22543;SDS011;11438;52.044;8.716;2022-09-02T06:35:23;4.57;;;1.05;;
22543;SDS011;11438;52.044;8.716;2022-09-02T06:37:49;1.25;;;0.98;;
22543;SDS011;11438;52.044;8.716;2022-09-02T06:40:15;1.98;;;0.75;;
22543;SDS011;11438;52.044;8.716;2022-09-02T06:42:42;1.80;;;0.80;;
22543;SDS011;11438;52.044;8.716;2022-09-02T06:45:08;1.58;;;0.82;;
22543;SDS011;11438;52.044;8.716;2022-09-02T06:47:33;1.20;;;0.90;;
22543;SDS011;11438;52.044;8.716;2022-09-02T06:49:59;2.25;;;0.80;;
22543;SDS011;11438;52.044;8.716;2022-09-02T06:52:25;1.85;;;0.80;;
22543;SDS011;11438;52.044;8.716;2022-09-02T06:54:51;1.25;;;0.70;;
22543;SDS011;11438;52.044;8.716;2022-09-02T06:57:18;2.42;;;0.70;;
22543;SDS011;11438;52.044;8.716;2022-09-02T06:59:44;3.33;;;0.98;;
22543;SDS011;11438;52.044;8.716;2022-09-02T07:02:10;1.45;;;0.75;;
22543;SDS011;11438;52.044;8.716;2022-09-02T07:04:36;1.85;;;0.60;;
22543;SDS011;11438;52.044;8.716;2022-09-02T07:07:20;2.03;;;0.82;;
22543;SDS011;11438;52.044;8.716;2022-09-02T07:09:46;1.23;;;0.85;;
22543;SDS011;11438;52.044;8.716;2022-09-02T07:12:11;1.38;;;0.70;;
22543;SDS011;11438;52.044;8.716;2022-09-02T07:14:39;1.75;;;0.65;;
22543;SDS011;11438;52.044;8.716;2022-09-02T07:17:06;4.38;;;0.88;;
22543;SDS011;11438;52.044;8.716;2022-09-02T07:19:34;1.20;;;0.70;;
22543;SDS011;11438;52.044;8.716;2022-09-02T07:22:01;0.93;;;0.60;;
22543;SDS011;11438;52.044;8.716;2022-09-02T07:24:30;3.55;;;0.80;;
22543;SDS011;11438;52.044;8.716;2022-09-02T07:26:55;1.58;;;0.85;;
22543;SDS011;11438;52.044;8.716;2022-09-02T07:29:21;4.43;;;0.80;;
22543;SDS011;11438;52.044;8.716;2022-09-02T07:31:47;2.70;;;0.65;;
22543;SDS011;11438;52.044;8.716;2022-09-02T07:34:14;2.15;;;0.70;;
22543;SDS011;11438;52.044;8.716;2022-09-02T07:36:40;1.45;;;0.60;;
22543;SDS011;11438;52.044;8.716;2022-09-02T07:39:07;1.42;;;1.00;;
22543;SDS011;11438;52.044;8.716;2022-09-02T07:41:34;1.27;;;0.60;;
22543;SDS011;11438;52.044;8.716;2022-09-02T07:44:01;2.45;;;0.80;;
22543;SDS011;11438;52.044;8.716;2022-09-02T07:46:27;2.10;;;0.82;;
22543;SDS011;11438;52.044;8.716;2022-09-02T07:48:55;3.45;;;1.00;;
22543;SDS011;11438;52.044;8.716;2022-09-02T07:51:21;2.50;;;0.90;;
22543;SDS011;11438;52.044;8.716;2022-09-02T07:53:47;2.55;;;0.90;;
22543;SDS011;11438;52.044;8.716;2022-09-02T07:56:13;1.67;;;0.90;;
22543;SDS011;11438;52.044;8.716;2022-09-02T07:58:40;1.98;;;1.00;;
22543;SDS011;11438;52.044;8.716;2022-09-02T08:01:06;1.55;;;0.80;;
22543;SDS011;11438;52.044;8.716;2022-09-02T08:03:31;2.03;;;1.00;;
22543;SDS011;11438;52.044;8.716;2022-09-02T08:05:57;1.10;;;0.60;;
22543;SDS011;11438;52.044;8.716;2022-09-02T08:08:23;2.00;;;0.88;;
22543;SDS011;11438;52.044;8.716;2022-09-02T08:10:52;1.65;;;0.63;;
22543;SDS011;11438;52.044;8.716;2022-09-02T08:13:19;2.28;;;0.90;;
22543;SDS011;11438;52.044;8.716;2022-09-02T08:15:45;1.70;;;0.80;;
22543;SDS011;11438;52.044;8.716;2022-09-02T08:18:12;1.88;;;0.80;;
22543;SDS011;11438;52.044;8.716;2022-09-02T08:20:37;1.58;;;1.00;;
22543;SDS011;11438;52.044;8.716;2022-09-02T08:23:03;2.45;;;1.00;;
22543;SDS011;11438;52.044;8.716;2022-09-02T08:25:30;2.35;;;0.90;;
22543;SDS011;11438;52.044;8.716;2022-09-02T08:27:56;2.00;;;0.90;;
22543;SDS011;11438;52.044;8.716;2022-09-02T08:30:22;4.10;;;0.93;;
22543;SDS011;11438;52.044;8.716;2022-09-02T08:32:48;2.35;;;0.90;;
22543;SDS011;11438;52.044;8.716;2022-09-02T08:35:13;5.90;;;1.00;;
22543;SDS011;11438;52.044;8.716;2022-09-02T08:37:39;2.10;;;0.90;;
22543;SDS011;11438;52.044;8.716;2022-09-02T08:40:06;3.65;;;0.80;;
22543;SDS011;11438;52.044;8.716;2022-09-02T08:42:37;2.40;;;0.95;;
22543;SDS011;11438;52.044;8.716;2022-09-02T08:47:42;1.80;;;0.85;;
22543;SDS011;11438;52.044;8.716;2022-09-02T08:50:13;2.25;;;0.82;;
22543;SDS011;11438;52.044;8.716;2022-09-02T08:55:19;0.90;;;0.73;;
22543;SDS011;11438;52.044;8.716;2022-09-02T08:57:50;2.03;;;0.80;;
22543;SDS011;11438;52.044;8.716;2022-09-02T09:00:16;3.08;;;0.80;;
22543;SDS011;11438;52.044;8.716;2022-09-02T09:11:28;2.45;;;0.80;;
22543;SDS011;11438;52.044;8.716;2022-09-02T09:16:55;1.02;;;0.80;;
22543;SDS011;11438;52.044;8.716;2022-09-02T09:19:38;1.38;;;0.77;;
22543;SDS011;11438;52.044;8.716;2022-09-02T09:22:18;3.88;;;0.90;;
22543;SDS011;11438;52.044;8.716;2022-09-02T09:24:46;2.20;;;1.00;;
22543;SDS011;11438;52.044;8.716;2022-09-02T09:27:18;1.55;;;0.80;;
22543;SDS011;11438;52.044;8.716;2022-09-02T09:29:46;1.88;;;0.90;;
22543;SDS011;11438;52.044;8.716;2022-09-02T09:32:25;1.63;;;0.80;;
22543;SDS011;11438;52.044;8.716;2022-09-02T09:35:08;1.90;;;0.90;;
22543;SDS011;11438;52.044;8.716;2022-09-02T09:37:36;1.30;;;0.70;;
22543;SDS011;11438;52.044;8.716;2022-09-02T09:45:31;1.90;;;0.70;;
22543;SDS011;11438;52.044;8.716;2022-09-02T09:50:47;1.42;;;0.80;;
22543;SDS011;11438;52.044;8.716;2022-09-02T09:53:38;1.42;;;0.70;;
22543;SDS011;11438;52.044;8.716;2022-09-02T10:03:57;2.97;;;1.00;;
22543;SDS011;11438;52.044;8.716;2022-09-02T10:11:34;3.85;;;1.05;;
22543;SDS011;11438;52.044;8.716;2022-09-02T10:14:08;4.15;;;0.80;;
22543;SDS011;11438;52.044;8.716;2022-09-02T10:19:42;2.25;;;0.68;;
22543;SDS011;11438;52.044;8.716;2022-09-02T10:22:36;2.58;;;1.02;;
22543;SDS011;11438;52.044;8.716;2022-09-02T10:31:36;1.85;;;0.82;;
22543;SDS011;11438;52.044;8.716;2022-09-02T10:34:15;0.77;;;0.70;;
22543;SDS011;11438;52.044;8.716;2022-09-02T10:42:38;1.23;;;0.73;;
22543;SDS011;11438;52.044;8.716;2022-09-02T10:45:15;1.20;;;0.70;;
22543;SDS011;11438;52.044;8.716;2022-09-02T10:51:05;1.40;;;0.60;;
22543;SDS011;11438;52.044;8.716;2022-09-02T10:56:48;1.02;;;0.70;;
22543;SDS011;11438;52.044;8.716;2022-09-02T11:02:12;1.05;;;0.60;;
22543;SDS011;11438;52.044;8.716;2022-09-02T11:04:50;2.17;;;0.85;;
22543;SDS011;11438;52.044;8.716;2022-09-02T11:07:29;1.70;;;0.60;;
22543;SDS011;11438;52.044;8.716;2022-09-02T11:10:05;3.67;;;0.93;;
22543;SDS011;11438;52.044;8.716;2022-09-02T11:12:37;2.67;;;0.77;;
22543;SDS011;11438;52.044;8.716;2022-09-02T11:15:18;0.93;;;0.60;;
22543;SDS011;11438;52.044;8.716;2022-09-02T11:18:16;1.63;;;0.63;;
22543;SDS011;11438;52.044;8.716;2022-09-02T11:23:56;0.88;;;0.70;;
22543;SDS011;11438;52.044;8.716;2022-09-02T11:29:15;1.27;;;0.60;;
22543;SDS011;11438;52.044;8.716;2022-09-02T11:31:47;1.10;;;0.70;;
22543;SDS011;11438;52.044;8.716;2022-09-02T11:34:33;2.63;;;0.90;;
22543;SDS011;11438;52.044;8.716;2022-09-02T11:37:03;2.42;;;0.75;;
22543;SDS011;11438;52.044;8.716;2022-09-02T11:39:47;1.50;;;0.77;;
22543;SDS011;11438;52.044;8.716;2022-09-02T11:50:45;0.75;;;0.60;;
22543;SDS011;11438;52.044;8.716;2022-09-02T11:53:25;1.05;;;0.75;;
22543;SDS011;11438;52.044;8.716;2022-09-02T11:56:16;0.98;;;0.50;;
22543;SDS011;11438;52.044;8.716;2022-09-02T11:58:49;1.98;;;0.57;;
22543;SDS011;11438;52.044;8.716;2022-09-02T12:01:29;1.05;;;0.70;;
22543;SDS011;11438;52.044;8.716;2022-09-02T12:15:01;1.48;;;0.98;;
22543;SDS011;11438;52.044;8.716;2022-09-02T12:23:06;0.75;;;0.57;;
22543;SDS011;11438;52.044;8.716;2022-09-02T12:25:55;1.02;;;0.70;;
22543;SDS011;11438;52.044;8.716;2022-09-02T12:28:29;1.27;;;0.73;;
22543;SDS011;11438;52.044;8.716;2022-09-02T12:33:32;1.05;;;0.80;;
22543;SDS011;11438;52.044;8.716;2022-09-02T12:35:59;1.10;;;0.68;;
22543;SDS011;11438;52.044;8.716;2022-09-02T12:38:29;2.67;;;0.80;;
22543;SDS011;11438;52.044;8.716;2022-09-02T12:43:54;1.50;;;0.70;;
22543;SDS011;11438;52.044;8.716;2022-09-02T12:49:04;1.50;;;0.70;;
22543;SDS011;11438;52.044;8.716;2022-09-02T12:51:49;1.33;;;0.80;;
22543;SDS011;11438;52.044;8.716;2022-09-02T12:54:43;2.05;;;0.90;;
22543;SDS011;11438;52.044;8.716;2022-09-02T12:57:12;1.67;;;0.90;;
22543;SDS011;11438;52.044;8.716;2022-09-02T12:59:41;1.98;;;0.70;;
22543;SDS011;11438;52.044;8.716;2022-09-02T13:07:33;3.85;;;1.20;;
22543;SDS011;11438;52.044;8.716;2022-09-02T13:22:09;1.60;;;0.80;;
22543;SDS011;11438;52.044;8.716;2022-09-02T13:27:51;1.00;;;0.70;;
22543;SDS011;11438;52.044;8.716;2022-09-02T13:33:16;1.80;;;0.90;;
22543;SDS011;11438;52.044;8.716;2022-09-02T13:35:41;1.20;;;0.80;;
22543;SDS011;11438;52.044;8.716;2022-09-02T13:38:10;1.42;;;0.75;;
22543;SDS011;11438;52.044;8.716;2022-09-02T13:40:37;0.95;;;0.70;;
22543;SDS011;11438;52.044;8.716;2022-09-02T13:45:38;1.80;;;0.82;;
22543;SDS011;11438;52.044;8.716;2022-09-02T13:48:08;1.77;;;0.70;;
22543;SDS011;11438;52.044;8.716;2022-09-02T13:50:42;1.30;;;0.90;;
22543;SDS011;11438;52.044;8.716;2022-09-02T13:53:10;0.70;;;0.70;;
22543;SDS011;11438;52.044;8.716;2022-09-02T13:55:46;3.55;;;0.88;;
22543;SDS011;11438;52.044;8.716;2022-09-02T13:58:21;2.33;;;0.80;;
22543;SDS011;11438;52.044;8.716;2022-09-02T14:00:52;1.50;;;0.70;;
22543;SDS011;11438;52.044;8.716;2022-09-02T14:03:19;0.60;;;0.60;;
22543;SDS011;11438;52.044;8.716;2022-09-02T14:05:46;1.77;;;1.00;;
22543;SDS011;11438;52.044;8.716;2022-09-02T14:08:15;1.83;;;0.80;;
22543;SDS011;11438;52.044;8.716;2022-09-02T14:10:44;0.90;;;0.70;;
22543;SDS011;11438;52.044;8.716;2022-09-02T14:13:12;1.85;;;0.60;;
22543;SDS011;11438;52.044;8.716;2022-09-02T14:15:40;2.03;;;0.80;;
22543;SDS011;11438;52.044;8.716;2022-09-02T14:18:13;1.00;;;0.80;;
22543;SDS011;11438;52.044;8.716;2022-09-02T14:20:39;4.20;;;0.75;;
22543;SDS011;11438;52.044;8.716;2022-09-02T14:23:16;0.90;;;0.60;;
22543;SDS011;11438;52.044;8.716;2022-09-02T14:25:47;1.77;;;0.85;;
22543;SDS011;11438;52.044;8.716;2022-09-02T14:28:20;1.88;;;0.90;;
22543;SDS011;11438;52.044;8.716;2022-09-02T14:30:58;1.80;;;0.93;;
22543;SDS011;11438;52.044;8.716;2022-09-02T14:43:45;2.53;;;0.80;;
22543;SDS011;11438;52.044;8.716;2022-09-02T14:48:50;1.85;;;0.80;;
22543;SDS011;11438;52.044;8.716;2022-09-02T14:51:30;3.20;;;0.90;;
22543;SDS011;11438;52.044;8.716;2022-09-02T14:54:04;1.67;;;0.90;;
22543;SDS011;11438;52.044;8.716;2022-09-02T14:59:09;1.20;;;0.77;;
22543;SDS011;11438;52.044;8.716;2022-09-02T15:01:39;1.42;;;0.80;;
22543;SDS011;11438;52.044;8.716;2022-09-02T15:04:06;2.78;;;0.63;;
22543;SDS011;11438;52.044;8.716;2022-09-02T15:06:33;2.03;;;0.65;;
22543;SDS011;11438;52.044;8.716;2022-09-02T15:08:58;1.60;;;0.70;;
22543;SDS011;11438;52.044;8.716;2022-09-02T15:11:24;1.58;;;0.82;;
22543;SDS011;11438;52.044;8.716;2022-09-02T15:13:49;1.60;;;0.80;;
22543;SDS011;11438;52.044;8.716;2022-09-02T15:16:15;3.00;;;0.88;;
22543;SDS011;11438;52.044;8.716;2022-09-02T15:18:40;1.70;;;0.60;;
22543;SDS011;11438;52.044;8.716;2022-09-02T15:21:06;1.48;;;0.73;;
22543;SDS011;11438;52.044;8.716;2022-09-02T15:23:33;1.48;;;0.90;;
22543;SDS011;11438;52.044;8.716;2022-09-02T15:25:58;1.52;;;0.75;;
22543;SDS011;11438;52.044;8.716;2022-09-02T15:28:24;1.17;;;0.60;;
22543;SDS011;11438;52.044;8.716;2022-09-02T15:30:55;1.95;;;0.80;;
22543;SDS011;11438;52.044;8.716;2022-09-02T15:33:25;2.30;;;0.70;;
22543;SDS011;11438;52.044;8.716;2022-09-02T15:35:51;1.45;;;0.80;;
22543;SDS011;11438;52.044;8.716;2022-09-02T15:38:17;10.23;;;1.98;;
22543;SDS011;11438;52.044;8.716;2022-09-02T15:40:43;2.20;;;0.85;;
22543;SDS011;11438;52.044;8.716;2022-09-02T15:43:12;1.40;;;0.80;;
22543;SDS011;11438;52.044;8.716;2022-09-02T15:45:39;3.53;;;1.00;;
22543;SDS011;11438;52.044;8.716;2022-09-02T15:48:09;2.22;;;0.77;;
22543;SDS011;11438;52.044;8.716;2022-09-02T15:50:38;1.95;;;0.57;;
22543;SDS011;11438;52.044;8.716;2022-09-02T15:53:04;1.42;;;0.90;;
22543;SDS011;11438;52.044;8.716;2022-09-02T15:55:32;1.50;;;0.80;;
22543;SDS011;11438;52.044;8.716;2022-09-02T15:57:58;1.48;;;0.90;;
22543;SDS011;11438;52.044;8.716;2022-09-02T16:00:24;1.42;;;0.82;;
22543;SDS011;11438;52.044;8.716;2022-09-02T16:02:50;0.63;;;0.63;;
22543;SDS011;11438;52.044;8.716;2022-09-02T16:05:16;0.88;;;0.70;;
22543;SDS011;11438;52.044;8.716;2022-09-02T16:07:42;2.58;;;0.68;;
22543;SDS011;11438;52.044;8.716;2022-09-02T16:10:08;1.40;;;0.60;;
22543;SDS011;11438;52.044;8.716;2022-09-02T16:12:34;0.73;;;0.63;;
22543;SDS011;11438;52.044;8.716;2022-09-02T16:15:00;1.02;;;0.68;;
22543;SDS011;11438;52.044;8.716;2022-09-02T16:17:25;2.65;;;0.60;;
22543;SDS011;11438;52.044;8.716;2022-09-02T16:19:51;0.90;;;0.63;;
22543;SDS011;11438;52.044;8.716;2022-09-02T16:22:17;1.85;;;0.80;;
22543;SDS011;11438;52.044;8.716;2022-09-02T16:24:43;1.23;;;0.60;;
22543;SDS011;11438;52.044;8.716;2022-09-02T16:27:09;1.23;;;0.60;;
22543;SDS011;11438;52.044;8.716;2022-09-02T16:29:34;1.98;;;0.60;;
22543;SDS011;11438;52.044;8.716;2022-09-02T16:32:01;4.80;;;0.85;;
22543;SDS011;11438;52.044;8.716;2022-09-02T16:34:27;5.82;;;0.90;;
22543;SDS011;11438;52.044;8.716;2022-09-02T16:36:53;2.55;;;0.60;;
22543;SDS011;11438;52.044;8.716;2022-09-02T16:39:18;1.17;;;0.60;;
22543;SDS011;11438;52.044;8.716;2022-09-02T16:41:46;4.28;;;0.75;;
22543;SDS011;11438;52.044;8.716;2022-09-02T16:44:17;1.80;;;0.77;;
22543;SDS011;11438;52.044;8.716;2022-09-02T16:46:45;1.90;;;0.57;;
22543;SDS011;11438;52.044;8.716;2022-09-02T16:49:12;1.38;;;0.70;;
22543;SDS011;11438;52.044;8.716;2022-09-02T16:51:42;1.13;;;0.70;;
22543;SDS011;11438;52.044;8.716;2022-09-02T16:54:09;1.10;;;0.65;;
22543;SDS011;11438;52.044;8.716;2022-09-02T16:56:35;2.75;;;0.60;;
22543;SDS011;11438;52.044;8.716;2022-09-02T16:59:02;2.78;;;1.25;;
22543;SDS011;11438;52.044;8.716;2022-09-02T17:01:29;1.00;;;0.60;;
22543;SDS011;11438;52.044;8.716;2022-09-02T17:03:56;0.88;;;0.50;;
22543;SDS011;11438;52.044;8.716;2022-09-02T17:06:22;1.75;;;0.65;;
22543;SDS011;11438;52.044;8.716;2022-09-02T17:08:48;3.67;;;0.68;;
22543;SDS011;11438;52.044;8.716;2022-09-02T17:11:18;1.90;;;0.80;;
22543;SDS011;11438;52.044;8.716;2022-09-02T17:13:47;1.13;;;0.60;;
22543;SDS011;11438;52.044;8.716;2022-09-02T17:16:14;4.95;;;2.13;;
22543;SDS011;11438;52.044;8.716;2022-09-02T17:18:41;4.47;;;2.65;;
22543;SDS011;11438;52.044;8.716;2022-09-02T17:23:47;18.08;;;11.48;;